createdAt,value
2022-11-17T00:02:24.992Z,100081.25
2022-11-17T00:05:30.106Z,100092.63
2022-11-17T00:08:34.834Z,100076.19
2022-11-17T00:11:52.254Z,100073.66
2022-11-17T00:14:55.895Z,100073.72
2022-11-17T00:18:13.349Z,100054.56
2022-11-17T00:21:21.243Z,100066.78
2022-11-17T00:24:25.223Z,100060.81
2022-11-17T00:27:28.898Z,100059.06
2022-11-17T00:30:49.708Z,100041.84
2022-11-17T00:34:08.026Z,100037.50
2022-11-17T00:37:15.586Z,100017.66
2022-11-17T00:40:19.282Z,100010.56
2022-11-17T00:43:22.882Z,99996.84
2022-11-17T00:46:26.882Z,99970.91
2022-11-17T00:49:30.505Z,99977.78
2022-11-17T00:52:35.519Z,99984.75
2022-11-17T00:55:39.136Z,99989.94
2022-11-17T00:58:42.739Z,99993.34
2022-11-17T01:01:47.145Z,99981.16
2022-11-17T01:04:50.801Z,99970.75
2022-11-17T01:07:56.186Z,99975.09
2022-11-17T01:11:11.637Z,99970.75
2022-11-17T01:14:18.515Z,99963.69
2022-11-17T01:17:22.074Z,99967.94
2022-11-17T01:20:25.630Z,99966.25
2022-11-17T01:23:30.550Z,99948.97
2022-11-17T01:26:37.530Z,99934.28
2022-11-17T01:29:41.028Z,99922.06
2022-11-17T01:32:44.606Z,99923.00
2022-11-17T01:35:48.166Z,99914.16
2022-11-17T01:38:53.636Z,99913.50
2022-11-17T01:41:57.793Z,99899.53
2022-11-17T01:45:17.903Z,99894.25
2022-11-17T01:48:21.573Z,99889.13
2022-11-17T01:51:26.393Z,99861.50
2022-11-17T01:54:34.229Z,99855.47
2022-11-17T01:57:43.838Z,99863.28
2022-11-17T02:00:47.944Z,99881.50
2022-11-17T02:03:52.425Z,99880.59
2022-11-17T02:07:07.745Z,99876.19
2022-11-17T02:10:12.930Z,99884.03
2022-11-17T02:13:16.731Z,99848.41
2022-11-17T02:16:20.596Z,99829.31
2022-11-17T02:19:28.315Z,99831.91
2022-11-17T02:23:03.224Z,99847.53
2022-11-17T02:26:42.112Z,99842.41
2022-11-17T02:29:56.161Z,99836.25
2022-11-17T02:33:07.927Z,99837.31
2022-11-17T02:36:19.254Z,99849.50
2022-11-17T02:39:31.390Z,99842.47
2022-11-17T02:43:00.332Z,99828.59
2022-11-17T02:46:10.609Z,99818.28
2022-11-17T02:49:23.967Z,99817.44
2022-11-17T02:52:30.179Z,99809.75
2022-11-17T02:55:36.392Z,99813.09
2022-11-17T02:58:39.910Z,99801.84
2022-11-17T03:02:35.775Z,99814.84
2022-11-17T03:05:54.583Z,99794.16
2022-11-17T03:09:11.409Z,99788.91
2022-11-17T03:12:30.302Z,99790.63
2022-11-17T03:15:48.666Z,99780.25
2022-11-17T03:19:07.536Z,99784.53
2022-11-17T03:22:18.349Z,99744.63
2022-11-17T03:25:25.150Z,99755.03
2022-11-17T03:28:33.887Z,99744.75
2022-11-17T03:31:40.064Z,99757.84
2022-11-17T03:34:53.098Z,99743.84
2022-11-17T03:38:02.755Z,99737.97
2022-11-17T03:41:11.947Z,99738.84
2022-11-17T03:44:21.790Z,99735.53
2022-11-17T03:47:29.959Z,99725.97
2022-11-17T03:50:42.235Z,99732.97
2022-11-17T03:53:47.363Z,99716.47
2022-11-17T03:57:03.172Z,99722.53
2022-11-17T04:00:11.504Z,99733.72
2022-11-17T04:03:16.409Z,99719.09
2022-11-17T04:06:21.420Z,99725.13
2022-11-17T04:09:25.085Z,99733.72
2022-11-17T04:12:46.664Z,99739.13
2022-11-17T04:15:59.588Z,99726.13
2022-11-17T04:19:03.209Z,99727.00
2022-11-17T04:22:08.321Z,99713.22
2022-11-17T04:25:32.486Z,99717.59
2022-11-17T04:28:44.270Z,99714.94
2022-11-17T04:31:47.995Z,99699.41
2022-11-17T04:34:51.735Z,99697.72
2022-11-17T04:37:56.662Z,99710.94
2022-11-17T04:41:23.751Z,99685.03
2022-11-17T04:44:29.564Z,99686.78
2022-11-17T04:47:33.173Z,99686.81
2022-11-17T04:50:36.684Z,99680.03
2022-11-17T04:53:41.864Z,99671.47
2022-11-17T04:56:46.757Z,99685.44
2022-11-17T04:59:50.429Z,99670.69
2022-11-17T05:02:54.021Z,99675.09
2022-11-17T05:05:57.590Z,99676.03
2022-11-17T05:09:05.690Z,99666.47
2022-11-17T05:12:28.064Z,99679.47
2022-11-17T05:15:46.774Z,99685.50
2022-11-17T05:18:50.316Z,99683.78
2022-11-17T05:21:53.966Z,99683.84
2022-11-17T05:24:58.837Z,99690.69
2022-11-17T05:28:02.386Z,99673.34
2022-11-17T05:31:06.313Z,99672.47
2022-11-17T05:34:12.516Z,99682.94
2022-11-17T05:37:16.132Z,99679.63
2022-11-17T05:40:21.100Z,99661.47
2022-11-17T05:43:37.466Z,99665.66
2022-11-17T05:46:41.191Z,99655.44
2022-11-17T05:49:44.886Z,99658.22
2022-11-17T05:52:48.499Z,99669.53
2022-11-17T05:56:15.143Z,99658.44
2022-11-17T05:59:28.251Z,99644.06
2022-11-17T06:02:42.050Z,99639.84
2022-11-17T06:05:46.073Z,99648.56
2022-11-17T06:08:50.487Z,99661.59
2022-11-17T06:11:58.550Z,99653.69
2022-11-17T06:15:05.711Z,99648.75
2022-11-17T06:18:15.427Z,99645.28
2022-11-17T06:21:19.452Z,99654.88
2022-11-17T06:24:23.830Z,99655.84
2022-11-17T06:27:32.058Z,99644.69
2022-11-17T06:30:37.630Z,99643.91
2022-11-17T06:33:41.579Z,99646.53
2022-11-17T06:36:45.174Z,99641.41
2022-11-17T06:39:48.885Z,99637.97
2022-11-17T06:43:10.862Z,99637.81
2022-11-17T06:46:14.682Z,99643.06
2022-11-17T06:49:18.526Z,99634.53
2022-11-17T06:52:23.167Z,99629.44
2022-11-17T06:55:27.440Z,99624.41
2022-11-17T06:58:33.596Z,99618.28
2022-11-17T07:01:39.220Z,99628.84
2022-11-17T07:04:42.873Z,99630.59
2022-11-17T07:07:46.538Z,99628.81
2022-11-17T07:10:54.782Z,99614.06
2022-11-17T07:14:00.236Z,99627.00
2022-11-17T07:17:04.037Z,99623.50
2022-11-17T07:20:10.789Z,99622.72
2022-11-17T07:23:14.769Z,99617.81
2022-11-17T07:26:18.645Z,99631.66
2022-11-17T07:29:23.947Z,99627.31
2022-11-17T07:32:27.608Z,99632.69
2022-11-17T07:35:32.043Z,99643.91
2022-11-17T07:38:36.622Z,99626.91
2022-11-17T07:41:40.413Z,99643.38
2022-11-17T07:44:45.455Z,99633.06
2022-11-17T07:47:56.889Z,99639.28
2022-11-17T07:51:00.795Z,99627.28
2022-11-17T07:54:04.851Z,99611.88
2022-11-17T07:57:08.648Z,99607.66
2022-11-17T08:00:15.923Z,99598.16
2022-11-17T08:03:19.646Z,99608.72
2022-11-17T08:06:24.340Z,99608.75
2022-11-17T08:09:28.070Z,99613.13
2022-11-17T08:12:31.697Z,99601.97
2022-11-17T08:15:42.862Z,99603.78
2022-11-17T08:18:52.168Z,99603.88
2022-11-17T08:21:56.320Z,99604.88
2022-11-17T08:24:59.972Z,99595.47
2022-11-17T08:28:03.898Z,99587.75
2022-11-17T08:31:09.612Z,99580.84
2022-11-17T08:34:13.268Z,99577.53
2022-11-17T08:37:16.860Z,99564.53
2022-11-17T08:40:21.433Z,99562.91
2022-11-17T08:43:25.359Z,99566.38
2022-11-17T08:46:30.392Z,99549.91
2022-11-17T08:49:34.045Z,99552.72
2022-11-17T08:52:38.960Z,99540.59
2022-11-17T08:55:42.955Z,99540.59
2022-11-17T08:58:47.044Z,99552.75
2022-11-17T09:01:52.033Z,99544.91
2022-11-17T09:04:55.721Z,99541.47
2022-11-17T09:08:16.419Z,99540.59
2022-11-17T09:11:24.951Z,99552.59
2022-11-17T09:14:28.812Z,99547.44
2022-11-17T09:17:34.586Z,99561.41
2022-11-17T09:20:44.257Z,99575.16
2022-11-17T09:23:49.737Z,99563.91
2022-11-17T09:26:57.365Z,99570.84
2022-11-17T09:30:01.120Z,99576.03
2022-11-17T09:33:06.275Z,99563.06
2022-11-17T09:36:11.876Z,99577.78
2022-11-17T09:39:15.527Z,99570.88
2022-11-17T09:42:23.727Z,99572.47
2022-11-17T09:45:35.401Z,99556.06
2022-11-17T09:48:49.535Z,99581.94
2022-11-17T09:51:57.932Z,99581.22
2022-11-17T09:55:11.994Z,99570.81
2022-11-17T09:58:31.470Z,99575.09
2022-11-17T10:01:35.970Z,99577.69
2022-11-17T10:04:41.252Z,99577.63
2022-11-17T10:07:51.309Z,99573.28
2022-11-17T10:10:55.147Z,99577.56
2022-11-17T10:13:59.472Z,99564.56
2022-11-17T10:17:03.987Z,99555.13
2022-11-17T10:20:18.762Z,99555.00
2022-11-17T10:23:23.960Z,99560.22
2022-11-17T10:26:28.300Z,99562.69
2022-11-17T10:29:32.144Z,99558.44
2022-11-17T10:32:42.708Z,99560.19
2022-11-17T10:35:58.202Z,99567.88
2022-11-17T10:39:02.695Z,99565.19
2022-11-17T10:42:27.670Z,99560.84
2022-11-17T10:45:46.120Z,99561.69
2022-11-17T10:48:58.381Z,99556.53
2022-11-17T10:52:18.594Z,99561.72
2022-11-17T10:55:28.245Z,99555.63
2022-11-17T10:58:34.112Z,99556.25
2022-11-17T11:01:40.214Z,99558.00
2022-11-17T11:04:43.937Z,99563.22
2022-11-17T11:07:49.097Z,99560.50
2022-11-17T11:10:57.077Z,99554.56
2022-11-17T11:14:06.714Z,99551.88
2022-11-17T11:17:14.285Z,99566.50
2022-11-17T11:20:22.168Z,99549.16
2022-11-17T11:23:40.924Z,99553.47
2022-11-17T11:26:58.171Z,99548.22
2022-11-17T11:30:06.406Z,99541.16
2022-11-17T11:33:29.110Z,99546.44
2022-11-17T11:36:44.016Z,99542.78
2022-11-17T11:40:06.192Z,99541.06
2022-11-17T11:43:34.724Z,99553.94
2022-11-17T11:46:53.121Z,99551.25
2022-11-17T11:50:03.616Z,99547.69
2022-11-17T11:53:17.143Z,99540.88
2022-11-17T11:56:28.896Z,99551.19
2022-11-17T11:59:48.245Z,99551.84
2022-11-17T12:02:59.763Z,99549.31
2022-11-17T12:06:35.401Z,99552.72
2022-11-17T12:10:06.283Z,99548.25
2022-11-17T12:13:16.143Z,99546.34
2022-11-17T12:16:21.395Z,99535.03
2022-11-17T12:19:56.200Z,99541.81
2022-11-17T12:23:13.175Z,99553.97
2022-11-17T12:26:27.288Z,99550.59
2022-11-17T12:29:33.103Z,99553.13
2022-11-17T12:32:54.800Z,99553.19
2022-11-17T12:36:31.688Z,99553.28
2022-11-17T12:39:57.485Z,99552.34
2022-11-17T12:43:23.035Z,99557.41
2022-11-17T12:46:34.443Z,99558.28
2022-11-17T12:49:52.364Z,99568.56
2022-11-17T12:53:20.458Z,99569.53
2022-11-17T12:57:05.608Z,99574.50
2022-11-17T13:00:20.187Z,99581.44
2022-11-17T13:03:38.042Z,99559.91
2022-11-17T13:07:01.294Z,99566.09
2022-11-17T13:10:05.621Z,99572.03
2022-11-17T13:13:19.398Z,99583.25
2022-11-17T13:16:23.579Z,99573.69
2022-11-17T13:19:36.819Z,99583.28
2022-11-17T13:22:43.161Z,99588.34
2022-11-17T13:25:47.272Z,99585.94
2022-11-17T13:29:05.296Z,99593.69
2022-11-17T13:32:20.264Z,99596.38
2022-11-17T13:35:28.951Z,99601.50
2022-11-17T13:38:32.594Z,99594.56
2022-11-17T13:41:40.788Z,99605.81
2022-11-17T13:44:44.624Z,99603.13
2022-11-17T13:47:50.207Z,99604.09
2022-11-17T13:50:55.280Z,99617.16
2022-11-17T13:54:03.114Z,99615.41
2022-11-17T13:57:09.922Z,99611.94
2022-11-17T14:00:19.271Z,99612.03
2022-11-17T14:03:37.360Z,99628.38
2022-11-17T14:07:00.370Z,99607.81
2022-11-17T14:10:15.272Z,99620.78
2022-11-17T14:13:24.778Z,99616.34
2022-11-17T14:16:35.908Z,99619.03
2022-11-17T14:19:39.624Z,99610.34
2022-11-17T14:23:02.661Z,99622.41
2022-11-17T14:26:07.564Z,99621.63
2022-11-17T14:29:13.810Z,99619.91
2022-11-17T14:32:17.387Z,99621.63
2022-11-17T14:35:21.035Z,99621.63
2022-11-17T14:38:26.354Z,99625.00
2022-11-17T14:41:30.336Z,99633.72
2022-11-17T14:44:33.933Z,99625.00
2022-11-17T14:47:37.511Z,99621.63
2022-11-17T14:50:41.466Z,99627.72
2022-11-17T14:53:47.979Z,99632.00
2022-11-17T14:56:51.761Z,99622.50
2022-11-17T14:59:55.419Z,99626.03
2022-11-17T15:02:59.179Z,99628.66
2022-11-17T15:06:08.861Z,99629.56
2022-11-17T15:09:16.604Z,99633.91
2022-11-17T15:12:20.936Z,99639.91
2022-11-17T15:15:25.927Z,99633.06
2022-11-17T15:18:30.235Z,99628.69
2022-11-17T15:21:34.027Z,99642.47
2022-11-17T15:24:39.046Z,99652.88
2022-11-17T15:27:43.023Z,99661.50
2022-11-17T15:30:46.659Z,99659.78
2022-11-17T15:33:50.374Z,99665.91
2022-11-17T15:36:54.280Z,99664.13
2022-11-17T15:39:59.375Z,99668.50
2022-11-17T15:43:05.793Z,99666.78
2022-11-17T15:46:12.576Z,99670.13
2022-11-17T15:49:16.829Z,99665.81
2022-11-17T15:52:41.532Z,99664.94
2022-11-17T15:55:46.232Z,99664.19
2022-11-17T15:58:56.655Z,99661.50
2022-11-17T16:02:00.408Z,99668.41
2022-11-17T16:05:04.243Z,99654.59
2022-11-17T16:08:08.135Z,99651.13
2022-11-17T16:11:13.345Z,99669.25
2022-11-17T16:14:16.955Z,99675.31
2022-11-17T16:17:20.708Z,99679.56
2022-11-17T16:20:24.436Z,99678.78
2022-11-17T16:23:28.101Z,99671.72
2022-11-17T16:26:33.604Z,99680.41
2022-11-17T16:29:37.330Z,99678.59
2022-11-17T16:32:41.072Z,99685.69
2022-11-17T16:35:45.937Z,99690.88
2022-11-17T16:39:01.892Z,99690.03
2022-11-17T16:42:07.825Z,99695.09
2022-11-17T16:45:32.688Z,99696.84
2022-11-17T16:48:36.348Z,99701.16
2022-11-17T16:51:40.438Z,99683.00
2022-11-17T16:54:44.164Z,99686.41
2022-11-17T16:57:49.175Z,99687.22
2022-11-17T17:00:52.877Z,99690.78
2022-11-17T17:03:57.914Z,99692.47
2022-11-17T17:07:01.699Z,99690.66
2022-11-17T17:10:06.012Z,99688.09
2022-11-17T17:13:11.022Z,99691.53
2022-11-17T17:16:17.645Z,99692.38
2022-11-17T17:19:21.407Z,99695.00
2022-11-17T17:22:25.211Z,99705.31
2022-11-17T17:25:28.803Z,99695.00
2022-11-17T17:28:36.632Z,99695.81
2022-11-17T17:31:43.268Z,99707.00
2022-11-17T17:34:46.926Z,99713.88
2022-11-17T17:37:50.576Z,99720.00
2022-11-17T17:40:54.263Z,99724.25
2022-11-17T17:44:01.568Z,99725.22
2022-11-17T17:47:05.608Z,99721.63
2022-11-17T17:50:10.434Z,99715.69
2022-11-17T17:53:14.139Z,99725.19
2022-11-17T17:56:20.794Z,99734.53
2022-11-17T17:59:25.803Z,99732.91
2022-11-17T18:02:29.333Z,99739.78
2022-11-17T18:05:33.160Z,99739.75
2022-11-17T18:08:38.055Z,99755.34
2022-11-17T18:11:45.995Z,99750.03
2022-11-17T18:14:51.427Z,99753.56
2022-11-17T18:17:55.101Z,99762.22
2022-11-17T18:21:03.943Z,99758.69
2022-11-17T18:24:08.727Z,99766.44
2022-11-17T18:27:12.364Z,99768.16
2022-11-17T18:30:18.158Z,99761.13
2022-11-17T18:33:21.839Z,99767.16
2022-11-17T18:36:26.642Z,99775.72
2022-11-17T18:39:31.730Z,99774.97
2022-11-17T18:42:35.444Z,99778.38
2022-11-17T18:45:40.858Z,99780.97
2022-11-17T18:48:47.750Z,99786.16
2022-11-17T18:51:51.643Z,99789.63
2022-11-17T18:54:55.279Z,99785.28
2022-11-17T18:57:58.915Z,99791.31
2022-11-17T19:01:10.907Z,99790.38
2022-11-17T19:04:15.801Z,99787.75
2022-11-17T19:07:19.430Z,99791.31
2022-11-17T19:10:23.103Z,99793.94
2022-11-17T19:13:26.952Z,99793.94
2022-11-17T19:16:33.241Z,99785.28
2022-11-17T19:19:36.916Z,99790.31
2022-11-17T19:22:40.449Z,99786.03
2022-11-17T19:25:45.595Z,99785.94
2022-11-17T19:28:49.833Z,99791.22
2022-11-17T19:31:54.831Z,99791.88
2022-11-17T19:35:09.244Z,99793.72
2022-11-17T19:38:17.481Z,99798.84
2022-11-17T19:41:24.906Z,99796.31
2022-11-17T19:44:29.791Z,99805.78
2022-11-17T19:47:34.828Z,99796.31
2022-11-17T19:50:38.447Z,99800.63
2022-11-17T19:53:42.675Z,99798.03
2022-11-17T19:56:46.346Z,99801.56
2022-11-17T19:59:50.004Z,99799.72
2022-11-17T20:02:55.025Z,99810.09
2022-11-17T20:06:01.571Z,99814.41
2022-11-17T20:09:09.616Z,99821.41
2022-11-17T20:12:13.285Z,99820.50
2022-11-17T20:15:34.449Z,99818.84
2022-11-17T20:18:39.896Z,99817.13
2022-11-17T20:21:43.696Z,99824.97
2022-11-17T20:24:47.512Z,99824.88
2022-11-17T20:27:51.497Z,99833.50
2022-11-17T20:30:55.255Z,99837.16
2022-11-17T20:34:02.355Z,99826.72
2022-11-17T20:37:06.047Z,99832.78
2022-11-17T20:40:12.183Z,99834.56
2022-11-17T20:43:15.890Z,99830.28
2022-11-17T20:46:20.399Z,99843.22
2022-11-17T20:49:28.289Z,99832.09
2022-11-17T20:52:32.966Z,99845.94
2022-11-17T20:55:37.076Z,99846.72
2022-11-17T20:58:41.451Z,99847.72
2022-11-17T21:01:45.543Z,99851.13
2022-11-17T21:04:50.725Z,99864.16
2022-11-17T21:07:54.506Z,99865.00
2022-11-17T21:10:59.239Z,99869.31
2022-11-17T21:14:03.743Z,99869.22
2022-11-17T21:17:27.649Z,99880.50
2022-11-17T21:20:33.479Z,99880.56
2022-11-17T21:23:37.698Z,99887.53
2022-11-17T21:26:41.446Z,99891.81
2022-11-17T21:29:45.205Z,99902.25
2022-11-17T21:32:48.984Z,99900.41
2022-11-17T21:36:03.472Z,99916.97
2022-11-17T21:39:07.178Z,99916.22
2022-11-17T21:42:10.915Z,99915.34
2022-11-17T21:45:14.829Z,99925.75
2022-11-17T21:48:18.688Z,99920.59
2022-11-17T21:51:27.691Z,99912.81
2022-11-17T21:54:31.763Z,99923.97
2022-11-17T21:57:35.780Z,99917.13
2022-11-17T22:00:39.545Z,99918.84
2022-11-17T22:03:44.398Z,99924.03
2022-11-17T22:06:49.568Z,99925.88
2022-11-17T22:09:54.966Z,99929.34
2022-11-17T22:12:58.557Z,99934.53
2022-11-17T22:16:09.276Z,99925.91
2022-11-17T22:19:15.904Z,99931.03
2022-11-17T22:22:21.063Z,99924.22
2022-11-17T22:25:44.328Z,99933.66
2022-11-17T22:28:53.501Z,99935.53
2022-11-17T22:31:57.160Z,99941.56
2022-11-17T22:35:01.831Z,99954.53
2022-11-17T22:38:06.906Z,99948.41
2022-11-17T22:41:12.949Z,99963.94
2022-11-17T22:44:17.309Z,99976.06
2022-11-17T22:47:21.175Z,99962.31
2022-11-17T22:50:24.955Z,99968.38
2022-11-17T22:53:30.154Z,99977.88
2022-11-17T22:56:35.092Z,99986.53
2022-11-17T22:59:38.819Z,99985.69
2022-11-17T23:02:42.584Z,99984.84
2022-11-17T23:05:46.527Z,99977.94
2022-11-17T23:08:52.023Z,99986.66
2022-11-17T23:11:55.726Z,99990.16
2022-11-17T23:14:59.423Z,99993.59
2022-11-17T23:18:03.299Z,99991.09
2022-11-17T23:21:09.591Z,99991.91
2022-11-17T23:24:14.753Z,99991.94
2022-11-17T23:27:18.764Z,99996.25
2022-11-17T23:30:22.461Z,99998.91
2022-11-17T23:33:26.097Z,100009.19
2022-11-17T23:36:30.298Z,100015.28
2022-11-17T23:39:35.447Z,100024.72
2022-11-17T23:42:43.002Z,100021.34
2022-11-17T23:45:47.034Z,100024.78
2022-11-17T23:48:51.275Z,100030.88
2022-11-17T23:51:54.970Z,100036.88
2022-11-17T23:54:59.961Z,100032.66
2022-11-17T23:58:03.644Z,100035.22
